createdAt,value
2022-09-02T00:00:54.069Z,52.24
2022-09-02T00:01:54.056Z,51.81
2022-09-02T00:02:54.057Z,52.04
2022-09-02T00:03:54.036Z,52.01
2022-09-02T00:04:54.035Z,51.61
2022-09-02T00:05:54.014Z,51.94
2022-09-02T00:06:54.007Z,51.72
2022-09-02T00:07:54.000Z,51.72
2022-09-02T00:08:53.991Z,51.72
2022-09-02T00:09:53.974Z,51.72
2022-09-02T00:10:53.986Z,51.84
2022-09-02T00:11:53.975Z,52.24
2022-09-02T00:12:53.946Z,51.84
2022-09-02T00:13:53.939Z,51.94
2022-09-02T00:14:53.940Z,52.04
2022-09-02T00:15:53.909Z,52.04
2022-09-02T00:16:53.907Z,51.84
2022-09-02T00:17:53.917Z,51.84
2022-09-02T00:18:53.882Z,51.94
2022-09-02T00:19:53.872Z,51.84
2022-09-02T00:20:53.860Z,51.61
2022-09-02T00:21:53.844Z,51.72
2022-09-02T00:22:53.844Z,51.51
2022-09-02T00:23:53.839Z,51.21
2022-09-02T00:24:53.816Z,51.21
2022-09-02T00:25:53.811Z,51.31
2022-09-02T00:26:53.799Z,51.61
2022-09-02T00:27:53.784Z,51.42
2022-09-02T00:28:53.777Z,51.84
2022-09-02T00:29:53.762Z,51.92
2022-09-02T00:30:53.801Z,52.14
2022-09-02T00:31:53.762Z,51.94
2022-09-02T00:32:53.736Z,51.94
2022-09-02T00:33:53.724Z,51.61
2022-09-02T00:34:53.740Z,51.61
2022-09-02T00:35:53.701Z,51.94
2022-09-02T00:36:53.697Z,52.04
2022-09-02T00:37:53.701Z,52.14
2022-09-02T00:38:53.667Z,52.14
2022-09-02T00:39:53.663Z,52.34
2022-09-02T00:40:53.664Z,52.34
2022-09-02T00:41:53.645Z,52.47
2022-09-02T00:42:53.629Z,52.77
2022-09-02T00:43:53.617Z,53.07
2022-09-02T00:44:53.602Z,52.77
2022-09-02T00:45:53.610Z,53.09
2022-09-02T00:46:53.584Z,53.07
2022-09-02T00:47:53.573Z,52.97
2022-09-02T00:48:53.578Z,53.07
2022-09-02T00:49:53.557Z,52.97
2022-09-02T00:50:53.542Z,53.07
2022-09-02T00:51:53.532Z,52.97
2022-09-02T00:52:53.532Z,52.87
2022-09-02T00:53:53.522Z,52.87
2022-09-02T00:54:53.502Z,52.74
2022-09-02T00:55:53.495Z,52.57
2022-09-02T00:56:53.482Z,52.67
2022-09-02T00:57:53.466Z,52.97
2022-09-02T00:58:53.455Z,53.07
2022-09-02T00:59:53.446Z,52.87
2022-09-02T01:00:53.441Z,52.74
2022-09-02T01:01:53.425Z,52.74
2022-09-02T01:02:53.441Z,53.07
2022-09-02T01:03:53.408Z,53.5
2022-09-02T01:04:53.393Z,53.57
2022-09-02T01:05:53.381Z,53.6
2022-09-02T01:06:53.405Z,53.7
2022-09-02T01:07:53.361Z,53.47
2022-09-02T01:08:53.350Z,53.7
2022-09-02T01:09:53.376Z,53.7
2022-09-02T01:10:53.323Z,53.7
2022-09-02T01:11:53.313Z,54
2022-09-02T01:12:53.300Z,53.8
2022-09-02T01:13:53.298Z,53.47
2022-09-02T01:14:53.309Z,53.37
2022-09-02T01:15:53.291Z,53.37
2022-09-02T01:16:53.271Z,53.57
2022-09-02T01:17:53.249Z,53.57
2022-09-02T01:18:53.235Z,53.77
2022-09-02T01:19:53.235Z,54
2022-09-02T01:20:53.226Z,54
2022-09-02T01:21:53.203Z,54.1
2022-09-02T01:22:53.197Z,54.1
2022-09-02T01:23:53.185Z,54
2022-09-02T01:24:53.173Z,53.9
2022-09-02T01:25:53.169Z,54.63
2022-09-02T01:26:53.166Z,54.3
2022-09-02T01:27:53.144Z,54.53
2022-09-02T01:28:53.141Z,54.63
2022-09-02T01:29:53.124Z,54.96
2022-09-02T01:30:53.123Z,54.73
2022-09-02T01:31:53.098Z,54.5
2022-09-02T01:32:53.084Z,54.53
2022-09-02T01:33:53.088Z,55.16
2022-09-02T01:34:53.070Z,55.16
2022-09-02T01:35:53.052Z,54.83
2022-09-02T01:36:53.040Z,54.6
2022-09-02T01:37:53.041Z,54.73
2022-09-02T01:38:53.020Z,54.8
2022-09-02T01:39:53.010Z,54.4
2022-09-02T01:40:52.997Z,54.08
2022-09-02T01:41:52.985Z,54.1
2022-09-02T01:42:52.979Z,54.83
2022-09-02T01:43:52.985Z,55.23
2022-09-02T01:44:52.960Z,54.71
2022-09-02T01:45:52.946Z,54.5
2022-09-02T01:46:52.937Z,54.5
2022-09-02T01:47:52.925Z,54.73
2022-09-02T01:48:52.916Z,54.83
2022-09-02T01:49:52.912Z,55.46
2022-09-02T01:50:52.899Z,55.96
2022-09-02T01:51:52.881Z,56.2
2022-09-02T01:52:52.887Z,55.96
2022-09-02T01:53:52.859Z,55.43
2022-09-02T01:54:52.857Z,55.43
2022-09-02T01:55:52.866Z,55.43
2022-09-02T01:56:52.824Z,55.13
2022-09-02T01:57:52.814Z,55.36
2022-09-02T01:58:52.805Z,55.87
2022-09-02T01:59:52.793Z,55.54
2022-09-02T02:00:52.786Z,55.23
2022-09-02T02:01:52.779Z,55.23
2022-09-02T02:02:52.768Z,55.33
2022-09-02T02:03:52.748Z,55.46
2022-09-02T02:04:52.746Z,56.4
2022-09-02T02:05:52.730Z,56.16
2022-09-02T02:06:52.727Z,55.96
2022-09-02T02:07:52.711Z,56.07
2022-09-02T02:08:52.714Z,55.74
2022-09-02T02:09:52.688Z,55.76
2022-09-02T02:10:52.667Z,55.87
2022-09-02T02:11:52.659Z,56.16
2022-09-02T02:12:52.654Z,56.16
2022-09-02T02:13:52.645Z,56.16
2022-09-02T02:14:52.627Z,56.6
2022-09-02T02:15:52.617Z,56.07
2022-09-02T02:16:52.609Z,56.9
2022-09-02T02:17:53.538Z,56.7
2022-09-02T02:18:52.587Z,56.7
2022-09-02T02:19:52.601Z,57
2022-09-02T02:20:52.565Z,57
2022-09-02T02:21:52.547Z,56.8
2022-09-02T02:22:52.548Z,56.7
2022-09-02T02:23:52.551Z,56.7
2022-09-02T02:24:52.520Z,57.1
2022-09-02T02:25:52.519Z,57.53
2022-09-02T02:26:52.496Z,57.4
2022-09-02T02:27:52.490Z,57.23
2022-09-02T02:28:52.474Z,57.3
2022-09-02T02:29:52.475Z,56.9
2022-09-02T02:30:52.450Z,56.9
2022-09-02T02:31:52.441Z,56.7
2022-09-02T02:32:52.432Z,56.6
2022-09-02T02:33:52.429Z,56.9
2022-09-02T02:34:52.406Z,57
2022-09-02T02:35:52.403Z,57.1
2022-09-02T02:36:52.386Z,57.53
2022-09-02T02:37:52.382Z,57.1
2022-09-02T02:38:52.369Z,57.73
2022-09-02T02:39:52.352Z,57.53
2022-09-02T02:40:52.352Z,57.43
2022-09-02T02:41:52.336Z,57.73
2022-09-02T02:42:52.322Z,58.03
2022-09-02T02:43:52.322Z,57.83
2022-09-02T02:44:52.317Z,57.6
2022-09-02T02:45:52.286Z,57.73
2022-09-02T02:46:52.289Z,57.63
2022-09-02T02:47:52.263Z,57.73
2022-09-02T02:48:52.252Z,57.93
2022-09-02T02:49:52.247Z,57.5
2022-09-02T02:50:52.232Z,57.63
2022-09-02T02:51:52.224Z,57.83
2022-09-02T02:52:52.209Z,57.93
2022-09-02T02:53:52.201Z,57.63
2022-09-02T02:54:52.189Z,57.83
2022-09-02T02:55:52.182Z,58.16
2022-09-02T02:56:52.165Z,58.89
2022-09-02T02:57:52.159Z,59.09
2022-09-02T02:58:52.140Z,59
2022-09-02T02:59:52.131Z,59.2
2022-09-02T03:00:52.124Z,58.67
2022-09-02T03:01:52.110Z,58.59
2022-09-02T03:02:52.110Z,58.8
2022-09-02T03:03:52.091Z,59
2022-09-02T03:04:52.079Z,58.67
2022-09-02T03:05:52.086Z,58.8
2022-09-02T03:06:52.061Z,59.63
2022-09-02T03:07:52.042Z,59.4
2022-09-02T03:08:52.037Z,59.07
2022-09-02T03:09:52.040Z,58.89
2022-09-02T03:10:52.014Z,59.09
2022-09-02T03:11:52.006Z,59.4
2022-09-02T03:12:51.987Z,59.3
2022-09-02T03:13:51.982Z,59.09
2022-09-02T03:14:51.972Z,59.2
2022-09-02T03:15:51.971Z,59.2
2022-09-02T03:16:51.947Z,59.63
2022-09-02T03:17:51.936Z,59.63
2022-09-02T03:18:51.926Z,59.73
2022-09-02T03:19:51.934Z,60.26
2022-09-02T03:20:51.904Z,60.16
2022-09-02T03:21:51.908Z,59.93
2022-09-02T03:22:51.885Z,59.93
2022-09-02T03:23:51.879Z,59.73
2022-09-02T03:24:51.865Z,59.93
2022-09-02T03:25:51.857Z,60.36
2022-09-02T03:26:51.857Z,60.36
2022-09-02T03:27:51.827Z,60.53
2022-09-02T03:28:51.824Z,60.13
2022-09-02T03:29:51.818Z,60.46
2022-09-02T03:30:51.794Z,60.57
2022-09-02T03:31:51.784Z,60.66
2022-09-02T03:32:51.789Z,60.13
2022-09-02T03:33:51.776Z,60.03
2022-09-02T03:34:51.754Z,60.44
2022-09-02T03:35:51.744Z,60.36
2022-09-02T03:36:51.762Z,60.46
2022-09-02T03:37:51.721Z,60.26
2022-09-02T03:38:51.708Z,60.33
2022-09-02T03:39:51.711Z,60.13
2022-09-02T03:40:51.749Z,60.57
2022-09-02T03:41:51.736Z,60.57
2022-09-02T03:42:51.692Z,60.87
2022-09-02T03:43:51.673Z,60.57
2022-09-02T03:44:51.657Z,60.8
2022-09-02T03:45:51.675Z,61
2022-09-02T03:46:51.640Z,61.6
2022-09-02T03:47:51.632Z,61.4
2022-09-02T03:48:51.619Z,61.3
2022-09-02T03:49:51.608Z,61.71
2022-09-02T03:50:51.600Z,61.4
2022-09-02T03:51:51.583Z,61.3
2022-09-02T03:52:51.572Z,61.51
2022-09-02T03:53:51.567Z,61.2
2022-09-02T03:54:51.562Z,61.07
2022-09-02T03:55:51.558Z,61.17
2022-09-02T03:56:51.528Z,61.2
2022-09-02T03:57:51.511Z,61.1
2022-09-02T03:58:51.512Z,61.73
2022-09-02T03:59:51.524Z,62.14
2022-09-02T04:00:51.484Z,62.14
2022-09-02T04:01:51.480Z,62.34
2022-09-02T04:02:51.467Z,62.04
2022-09-02T04:03:51.457Z,62.34
2022-09-02T04:04:51.451Z,62.34
2022-09-02T04:05:51.431Z,62.04
2022-09-02T04:06:51.425Z,62.37
2022-09-02T04:07:51.418Z,62.67
2022-09-02T04:08:51.408Z,62.67
2022-09-02T04:09:51.395Z,62.04
2022-09-02T04:10:51.388Z,62.14
2022-09-02T04:11:51.372Z,62.34
2022-09-02T04:12:51.374Z,62.14
2022-09-02T04:13:51.379Z,62.34
2022-09-02T04:14:51.342Z,61.83
2022-09-02T04:15:51.334Z,62.44
2022-09-02T04:16:51.344Z,62.44
2022-09-02T04:17:51.354Z,62.64
2022-09-02T04:18:51.303Z,62.77
2022-09-02T04:19:51.295Z,62.87
2022-09-02T04:20:51.298Z,62.67
2022-09-02T04:21:51.277Z,62.77
2022-09-02T04:22:51.270Z,63.18
2022-09-02T04:23:51.250Z,62.87
2022-09-02T04:24:51.234Z,62.98
2022-09-02T04:25:51.234Z,63.31
2022-09-02T04:26:51.238Z,63.18
2022-09-02T04:27:51.208Z,63.28
2022-09-02T04:28:51.212Z,63.31
2022-09-02T04:29:51.200Z,63.61
2022-09-02T04:30:51.184Z,63.71
2022-09-02T04:31:51.208Z,63.81
2022-09-02T04:32:51.162Z,63.71
2022-09-02T04:33:51.142Z,63.61
2022-09-02T04:34:51.136Z,63.81
2022-09-02T04:35:51.132Z,64.02
2022-09-02T04:36:51.124Z,63.92
2022-09-02T04:37:51.116Z,63.92
2022-09-02T04:38:51.097Z,63.71
2022-09-02T04:39:51.088Z,63.71
2022-09-02T04:40:51.081Z,63.92
2022-09-02T04:41:51.074Z,64.04
2022-09-02T04:42:51.051Z,64.04
2022-09-02T04:43:51.044Z,64.25
2022-09-02T04:44:51.040Z,64.32
2022-09-02T04:45:51.027Z,63.71
2022-09-02T04:46:51.014Z,63.71
2022-09-02T04:47:51.021Z,63.61
2022-09-02T04:48:50.996Z,63.61
2022-09-02T04:49:50.983Z,63.51
2022-09-02T04:50:50.977Z,63.78
2022-09-02T04:51:50.954Z,63.28
2022-09-02T04:52:50.965Z,63.31
2022-09-02T04:53:50.954Z,64.02
2022-09-02T04:54:50.930Z,63.18
2022-09-02T04:55:50.923Z,63.48
2022-09-02T04:56:50.916Z,63.41
2022-09-02T04:57:50.909Z,63.21
2022-09-02T04:58:50.895Z,63.84
2022-09-02T04:59:50.887Z,64.25
2022-09-02T05:00:50.865Z,64.25
2022-09-02T05:01:50.860Z,64.15
2022-09-02T05:02:50.874Z,64.25
2022-09-02T05:03:50.835Z,64.35
2022-09-02T05:04:50.827Z,63.71
2022-09-02T05:05:50.836Z,64.15
2022-09-02T05:06:50.802Z,64.42
2022-09-02T05:07:50.796Z,64.02
2022-09-02T05:08:50.847Z,63.38
2022-09-02T05:09:50.772Z,62.87
2022-09-02T05:10:50.782Z,63.38
2022-09-02T05:11:50.831Z,63.08
2022-09-02T05:12:50.748Z,63.18
2022-09-02T05:13:50.731Z,63.28
2022-09-02T05:14:50.722Z,63.81
2022-09-02T05:15:50.724Z,63.18
2022-09-02T05:16:50.697Z,63.08
2022-09-02T05:17:50.720Z,63.18
2022-09-02T05:18:50.676Z,63.41
2022-09-02T05:19:50.696Z,63.71
2022-09-02T05:20:50.661Z,64.25
2022-09-02T05:21:50.648Z,64.45
2022-09-02T05:22:50.640Z,64.32
2022-09-02T05:23:50.648Z,64.12
2022-09-02T05:24:50.619Z,64.12
2022-09-02T05:25:50.607Z,63.58
2022-09-02T05:26:50.614Z,63.58
2022-09-02T05:27:50.652Z,63.18
2022-09-02T05:28:50.628Z,63.58
2022-09-02T05:29:50.648Z,63.55
2022-09-02T05:30:50.660Z,62.74
2022-09-02T05:31:50.552Z,62.64
2022-09-02T05:32:50.578Z,63.28
2022-09-02T05:33:50.530Z,63.18
2022-09-02T05:34:50.525Z,62.74
2022-09-02T05:35:50.524Z,62.44
2022-09-02T05:36:50.518Z,63.05
2022-09-02T05:37:50.515Z,63.58
2022-09-02T05:38:50.470Z,63.48
2022-09-02T05:39:50.475Z,63.48
2022-09-02T05:40:50.471Z,63.58
2022-09-02T05:41:50.451Z,63.58
2022-09-02T05:42:50.431Z,63.89
2022-09-02T05:43:50.440Z,64.12
2022-09-02T05:44:50.404Z,63.99
2022-09-02T05:45:50.394Z,64.09
2022-09-02T05:46:50.389Z,63.89
2022-09-02T05:47:50.371Z,63.45
2022-09-02T05:48:50.363Z,63.58
2022-09-02T05:49:50.359Z,63.55
2022-09-02T05:50:50.344Z,63.45
2022-09-02T05:51:50.341Z,63.68
2022-09-02T05:52:50.351Z,63.96
2022-09-02T05:53:50.314Z,63.76
2022-09-02T05:54:50.297Z,63.55
2022-09-02T05:55:50.287Z,63.55
2022-09-02T05:56:50.282Z,63.32
2022-09-02T05:57:50.271Z,63.32
2022-09-02T05:58:50.259Z,63.32
2022-09-02T05:59:50.256Z,62.92
2022-09-02T06:00:50.243Z,62.79
2022-09-02T06:01:50.228Z,62.82
2022-09-02T06:02:50.220Z,63.12
2022-09-02T06:03:50.211Z,63.09
2022-09-02T06:04:50.200Z,62.79
2022-09-02T06:05:50.245Z,62.59
2022-09-02T06:06:50.182Z,62.79
2022-09-02T06:07:50.165Z,62.65
2022-09-02T06:08:50.192Z,62.22
2022-09-02T06:09:50.225Z,62.12
2022-09-02T06:10:50.165Z,61.29
2022-09-02T06:11:50.119Z,61.25
2022-09-02T06:12:50.122Z,60.65
2022-09-02T06:13:50.116Z,60.65
2022-09-02T06:14:50.087Z,60.55
2022-09-02T06:15:50.079Z,60.85
2022-09-02T06:16:50.077Z,60.45
2022-09-02T06:17:50.069Z,60.42
2022-09-02T06:18:50.058Z,60.65
2022-09-02T06:19:50.036Z,61.25
2022-09-02T06:20:50.025Z,60.93
2022-09-02T06:21:50.019Z,60.42
2022-09-02T06:22:50.010Z,60.39
2022-09-02T06:23:49.993Z,59.99
2022-09-02T06:24:50.059Z,60.63
2022-09-02T06:25:50.030Z,60.52
2022-09-02T06:26:49.961Z,59.89
2022-09-02T06:27:49.976Z,59.89
2022-09-02T06:28:49.939Z,60.22
2022-09-02T06:29:49.931Z,60.72
2022-09-02T06:30:49.917Z,60.63
2022-09-02T06:31:49.989Z,60.6
2022-09-02T06:32:49.907Z,60.06
2022-09-02T06:33:49.891Z,59.74
2022-09-02T06:34:49.879Z,59
2022-09-02T06:35:49.870Z,58.4
2022-09-02T06:36:49.852Z,58.37
2022-09-02T06:37:49.846Z,58.07
2022-09-02T06:38:49.835Z,58.27
2022-09-02T06:39:49.850Z,58.07
2022-09-02T06:40:49.830Z,58.07
2022-09-02T06:41:49.830Z,57.97
2022-09-02T06:42:49.787Z,57.94
2022-09-02T06:43:49.787Z,57.44
2022-09-02T06:44:49.778Z,57.31
2022-09-02T06:45:49.765Z,57.21
2022-09-02T06:46:49.766Z,57.31
2022-09-02T06:47:49.748Z,57.18
2022-09-02T06:48:49.749Z,56.48
2022-09-02T06:49:49.724Z,57.21
2022-09-02T06:50:49.707Z,57.39
2022-09-02T06:51:49.697Z,57.18
2022-09-02T06:52:49.685Z,56.76
2022-09-02T06:53:49.682Z,56.1
2022-09-02T06:54:49.675Z,55.8
2022-09-02T06:55:49.654Z,55.7
2022-09-02T06:56:49.662Z,55.6
2022-09-02T06:57:49.638Z,55.07
2022-09-02T06:58:49.636Z,54.77
2022-09-02T06:59:49.619Z,54.44
2022-09-02T07:00:49.626Z,54.22
2022-09-02T07:01:49.587Z,54.12
2022-09-02T07:02:49.575Z,54.42
2022-09-02T07:03:49.666Z,53.79
2022-09-02T07:04:49.584Z,54.22
2022-09-02T07:05:49.543Z,53.99
2022-09-02T07:06:49.536Z,53.47
2022-09-02T07:07:49.548Z,53.59
2022-09-02T07:08:49.610Z,53.79
2022-09-02T07:09:49.502Z,53.07
2022-09-02T07:10:49.493Z,52.55
2022-09-02T07:11:49.485Z,53.27
2022-09-02T07:12:49.477Z,52.84
2022-09-02T07:13:49.458Z,52.52
2022-09-02T07:14:49.551Z,52
2022-09-02T07:15:49.448Z,50.77
2022-09-02T07:16:49.463Z,51.2
2022-09-02T07:17:49.444Z,51.37
2022-09-02T07:18:49.408Z,51.07
2022-09-02T07:19:49.398Z,50.87
2022-09-02T07:20:49.397Z,51.07
2022-09-02T07:21:49.393Z,51.07
2022-09-02T07:23:49.386Z,51.15
2022-09-02T07:24:49.354Z,50.55
2022-09-02T07:25:49.339Z,51.47
2022-09-02T07:26:49.327Z,51.37
2022-09-02T07:27:49.312Z,50.85
2022-09-02T07:28:49.313Z,50.87
2022-09-02T07:29:49.297Z,51.5
2022-09-02T07:30:49.350Z,50.43
2022-09-02T07:31:49.273Z,49.51
2022-09-02T07:32:49.277Z,48.83
2022-09-02T07:33:49.256Z,47.6
2022-09-02T07:34:49.242Z,46.46
2022-09-02T07:35:49.235Z,47
2022-09-02T07:36:49.222Z,47.4
2022-09-02T07:37:49.215Z,47.2
2022-09-02T07:38:49.205Z,47.1
2022-09-02T07:39:49.189Z,46.78
2022-09-02T07:40:49.189Z,46.46
2022-09-02T07:41:49.166Z,46.34
2022-09-02T07:42:49.169Z,46.16
2022-09-02T07:43:49.147Z,45.86
2022-09-02T07:44:49.138Z,45.72
2022-09-02T07:45:49.136Z,44.68
2022-09-02T07:46:49.113Z,43.95
2022-09-02T07:47:49.109Z,43.43
2022-09-02T07:48:49.103Z,43.13
2022-09-02T07:49:49.092Z,43.46
2022-09-02T07:50:49.080Z,42.62
2022-09-02T07:51:49.079Z,42.3
2022-09-02T07:52:49.052Z,42.19
2022-09-02T07:53:49.046Z,42.82
2022-09-02T07:54:49.038Z,43.16
2022-09-02T07:55:49.041Z,43.55
2022-09-02T07:56:49.012Z,43.87
2022-09-02T07:57:49.019Z,43.21
2022-09-02T07:58:48.986Z,41.89
2022-09-02T07:59:48.985Z,41.79
2022-09-02T08:00:48.963Z,42.62
2022-09-02T08:01:48.972Z,41.38
2022-09-02T08:02:48.948Z,41.38
2022-09-02T08:03:48.951Z,41.69
2022-09-02T08:04:48.925Z,40.64
2022-09-02T08:05:48.926Z,39.81
2022-09-02T08:06:48.900Z,38.89
2022-09-02T08:07:48.901Z,39.25
2022-09-02T08:08:48.886Z,39.95
2022-09-02T08:09:48.898Z,39.73
2022-09-02T08:10:48.873Z,39.76
2022-09-02T08:11:48.852Z,39.23
2022-09-02T08:12:48.844Z,38.28
2022-09-02T08:13:48.833Z,37.89
2022-09-02T08:14:48.822Z,37.99
2022-09-02T08:15:48.823Z,38.09
2022-09-02T08:16:48.801Z,39.11
2022-09-02T08:17:48.803Z,38.79
2022-09-02T08:18:48.778Z,38.93
2022-09-02T08:19:48.773Z,39.42
2022-09-02T08:20:48.769Z,39.01
2022-09-02T08:21:48.833Z,38.05
2022-09-02T08:22:48.745Z,36.74
2022-09-02T08:23:48.733Z,36.21
2022-09-02T08:24:49.053Z,35.62
2022-09-02T08:25:48.710Z,36.32
2022-09-02T08:26:48.729Z,36.72
2022-09-02T08:27:48.685Z,35.68
2022-09-02T08:28:48.685Z,35.08
2022-09-02T08:29:48.660Z,36.01
2022-09-02T08:30:48.650Z,35.49
2022-09-02T08:31:48.644Z,35.47
2022-09-02T08:32:48.629Z,34.74
2022-09-02T08:33:48.632Z,33.92
2022-09-02T08:34:48.648Z,33.64
2022-09-02T08:35:48.641Z,35
2022-09-02T08:36:48.626Z,34.65
2022-09-02T08:37:48.581Z,33.62
2022-09-02T08:38:48.578Z,32.89
2022-09-02T08:39:48.554Z,32.08
2022-09-02T08:40:48.612Z,32.29
2022-09-02T08:41:48.543Z,33.23
2022-09-02T08:42:48.526Z,33.53
2022-09-02T08:43:48.515Z,32.5
2022-09-02T08:44:48.536Z,32.09
2022-09-02T08:45:48.560Z,32.29
2022-09-02T08:46:48.505Z,32.63
2022-09-02T08:47:48.471Z,33.43
2022-09-02T08:48:48.465Z,32.92
2022-09-02T08:49:48.453Z,33.02
2022-09-02T08:50:48.446Z,32.91
2022-09-02T08:51:48.434Z,32.65
2022-09-02T08:52:48.418Z,33.59
2022-09-02T08:53:48.428Z,34.41
2022-09-02T08:54:48.403Z,33.45
2022-09-02T08:55:48.444Z,32.94
2022-09-02T08:56:48.397Z,33.26
2022-09-02T08:57:48.375Z,33.36
2022-09-02T08:58:48.372Z,33.14
2022-09-02T08:59:48.361Z,31.8
2022-09-02T09:00:48.338Z,32.63
2022-09-02T09:01:48.343Z,33.7
2022-09-02T09:02:48.329Z,34.93
2022-09-02T09:03:48.309Z,34.83
2022-09-02T09:04:48.301Z,35.26
2022-09-02T09:05:48.293Z,35.44
2022-09-02T09:06:48.292Z,35.66
2022-09-02T09:07:48.266Z,35.42
2022-09-02T09:08:48.269Z,34.8
2022-09-02T09:09:48.247Z,34.31
2022-09-02T09:10:48.243Z,34.44
2022-09-02T09:11:48.246Z,34.93
2022-09-02T09:12:49.112Z,34.31
2022-09-02T09:13:48.219Z,32.76
2022-09-02T09:14:48.210Z,32.24
2022-09-02T09:15:48.190Z,31.92
2022-09-02T09:16:48.180Z,31.2
2022-09-02T09:17:48.165Z,31.01
2022-09-02T09:18:48.169Z,31.51
2022-09-02T09:19:48.176Z,31.6
2022-09-02T09:20:48.145Z,31.54
2022-09-02T09:21:48.122Z,32.26
2022-09-02T09:22:48.110Z,32.56
2022-09-02T09:23:48.113Z,32.99
2022-09-02T09:24:48.092Z,34.64
2022-09-02T09:25:48.156Z,35.87
2022-09-02T09:26:48.075Z,37.01
2022-09-02T09:27:48.062Z,37.65
2022-09-02T09:28:48.050Z,38.35
2022-09-02T09:29:48.037Z,38.65
2022-09-02T09:30:48.051Z,38.65
2022-09-02T09:31:48.022Z,38.35
2022-09-02T09:32:48.026Z,38.37
2022-09-02T09:33:48.031Z,38.47
2022-09-02T09:34:48.001Z,38.98
2022-09-02T09:35:47.989Z,39.11
2022-09-02T09:36:47.973Z,39.81
2022-09-02T09:37:47.959Z,39.81
2022-09-02T09:38:47.969Z,40.01
2022-09-02T09:39:47.964Z,39.89
2022-09-02T09:40:47.973Z,40.01
2022-09-02T09:41:47.930Z,40.21
2022-09-02T09:42:47.911Z,40.11
2022-09-02T09:43:47.901Z,40.21
2022-09-02T09:44:47.897Z,39.79
2022-09-02T09:45:47.896Z,40.31
2022-09-02T09:46:47.903Z,40.03
2022-09-02T09:47:47.862Z,39.72
2022-09-02T09:48:47.845Z,40.01
2022-09-02T09:49:47.832Z,40.03
2022-09-02T09:50:47.878Z,40.21
2022-09-02T09:51:47.813Z,40.23
2022-09-02T09:52:47.797Z,40.01
2022-09-02T09:53:47.795Z,39.62
2022-09-02T09:54:47.786Z,39.62
2022-09-02T09:55:47.769Z,40.23
2022-09-02T09:56:47.773Z,39.7
2022-09-02T09:57:47.749Z,39.6
2022-09-02T09:58:47.736Z,39.62
2022-09-02T09:59:47.741Z,40.45
2022-09-02T10:00:47.719Z,41.69
2022-09-02T10:01:47.791Z,41.55
2022-09-02T10:02:47.720Z,41.65
2022-09-02T10:03:47.685Z,40.96
2022-09-02T10:04:47.695Z,40.86
2022-09-02T10:05:47.663Z,40.37
2022-09-02T10:06:47.661Z,41
2022-09-02T10:07:47.645Z,41.18
2022-09-02T10:08:47.642Z,40.42
2022-09-02T10:09:47.654Z,39.5
2022-09-02T10:10:47.620Z,37.93
2022-09-02T10:11:47.608Z,36.46
2022-09-02T10:12:47.587Z,34.7
2022-09-02T10:13:47.588Z,33.75
2022-09-02T10:14:48.340Z,32.45
2022-09-02T10:15:47.564Z,32.89
2022-09-02T10:16:47.547Z,32.89
2022-09-02T10:17:47.547Z,32.97
2022-09-02T10:18:47.527Z,32.06
2022-09-02T10:19:47.516Z,32.17
2022-09-02T10:20:47.520Z,32.46
2022-09-02T10:21:47.508Z,32.14
2022-09-02T10:22:47.495Z,31.51
2022-09-02T10:23:47.479Z,31.85
2022-09-02T10:24:47.471Z,32.3
2022-09-02T10:25:47.466Z,31.9
2022-09-02T10:26:47.451Z,31.81
2022-09-02T10:27:47.439Z,31.62
2022-09-02T10:28:47.480Z,31.91
2022-09-02T10:29:47.413Z,30.86
2022-09-02T10:30:47.406Z,29.82
2022-09-02T10:31:47.410Z,29.4
2022-09-02T10:32:47.407Z,29.18
2022-09-02T10:33:47.374Z,29.02
2022-09-02T10:34:47.364Z,29
2022-09-02T10:35:47.361Z,28.8
2022-09-02T10:36:47.348Z,28.9
2022-09-02T10:37:47.457Z,29.02
2022-09-02T10:38:47.329Z,28.19
2022-09-02T10:39:47.363Z,27.19
2022-09-02T10:40:47.314Z,27.4
2022-09-02T10:41:47.373Z,27.08
2022-09-02T10:42:47.301Z,27.4
2022-09-02T10:43:47.276Z,27.01
2022-09-02T10:44:47.331Z,27.82
2022-09-02T10:45:47.272Z,27.82
2022-09-02T10:46:47.248Z,26.32
2022-09-02T10:47:47.237Z,26.11
2022-09-02T10:48:47.233Z,26.62
2022-09-02T10:49:47.230Z,25.81
2022-09-02T10:50:47.224Z,26.11
2022-09-02T10:51:47.221Z,26.31
2022-09-02T10:52:47.185Z,27.22
2022-09-02T10:53:47.298Z,27
2022-09-02T10:54:47.186Z,26.6
2022-09-02T10:55:47.167Z,26
2022-09-02T10:56:47.148Z,26
2022-09-02T10:57:47.145Z,26.1
2022-09-02T10:58:47.133Z,26.73
2022-09-02T10:59:47.142Z,26.2
2022-09-02T11:00:47.114Z,25.48
2022-09-02T11:01:47.115Z,25.68
2022-09-02T11:02:47.110Z,25.79
2022-09-02T11:03:47.087Z,26.62
2022-09-02T11:04:47.085Z,27.54
2022-09-02T11:05:47.066Z,28.69
2022-09-02T11:06:47.071Z,29.49
2022-09-02T11:07:47.041Z,28.69
2022-09-02T11:08:47.038Z,29.21
2022-09-02T11:09:47.029Z,28.77
2022-09-02T11:10:47.009Z,28.58
2022-09-02T11:11:47.006Z,28.91
2022-09-02T11:12:46.993Z,30.57
2022-09-02T11:13:47.036Z,31.61
2022-09-02T11:14:46.990Z,32.53
2022-09-02T11:15:46.963Z,33.15
2022-09-02T11:16:46.951Z,33.33
2022-09-02T11:17:46.982Z,33.05
2022-09-02T11:18:46.934Z,33.33
2022-09-02T11:19:46.919Z,32.07
2022-09-02T11:20:46.934Z,30.52
2022-09-02T11:21:46.935Z,29.07
2022-09-02T11:22:46.911Z,28.36
2022-09-02T11:23:46.892Z,27.54
2022-09-02T11:24:46.877Z,26.92
2022-09-02T11:25:46.908Z,26.11
2022-09-02T11:26:46.876Z,26.87
2022-09-02T11:27:46.843Z,28.72
2022-09-02T11:28:46.877Z,29.66
2022-09-02T11:29:46.823Z,31.12
2022-09-02T11:30:46.807Z,32.36
2022-09-02T11:31:46.800Z,32.89
2022-09-02T11:32:47.018Z,32.77
2022-09-02T11:33:46.795Z,31.38
2022-09-02T11:34:46.774Z,29.52
2022-09-02T11:35:46.762Z,28.16
2022-09-02T11:36:46.753Z,26.55
2022-09-02T11:37:46.762Z,25.51
2022-09-02T11:38:46.743Z,25.19
2022-09-02T11:39:46.722Z,24.6
2022-09-02T11:40:46.727Z,24.49
2022-09-02T11:41:46.703Z,24.8
2022-09-02T11:42:46.691Z,25.45
2022-09-02T11:43:46.686Z,26.17
2022-09-02T11:44:46.685Z,26.98
2022-09-02T11:45:46.666Z,26.87
2022-09-02T11:46:46.669Z,26.8
2022-09-02T11:47:46.657Z,27.52
2022-09-02T11:48:46.630Z,27.83
2022-09-02T11:49:46.655Z,27.22
2022-09-02T11:50:46.627Z,27.01
2022-09-02T11:51:46.604Z,27
2022-09-02T11:52:46.600Z,26.7
2022-09-02T11:53:46.590Z,26.7
2022-09-02T11:54:46.595Z,26.37
2022-09-02T11:55:46.563Z,26.29
2022-09-02T11:56:46.574Z,25.87
2022-09-02T11:57:46.548Z,25.36
2022-09-02T11:58:46.538Z,25.15
2022-09-02T11:59:46.526Z,24.84
2022-09-02T12:00:46.516Z,24.87
2022-09-02T12:01:46.519Z,25.37
2022-09-02T12:02:46.500Z,26.29
2022-09-02T12:03:46.500Z,26.07
2022-09-02T12:04:46.479Z,26.03
2022-09-02T12:05:46.484Z,25.29
2022-09-02T12:06:46.474Z,25.38
2022-09-02T12:07:46.450Z,24.97
2022-09-02T12:08:46.443Z,25.59
2022-09-02T12:09:46.435Z,25.4
2022-09-02T12:10:46.437Z,25.48
2022-09-02T12:11:46.420Z,25.16
2022-09-02T12:12:46.407Z,26.23
2022-09-02T12:13:46.399Z,27.95
2022-09-02T12:14:46.387Z,30.12
2022-09-02T12:15:46.398Z,30.84
2022-09-02T12:16:46.380Z,31.46
2022-09-02T12:17:46.362Z,31.59
2022-09-02T12:18:46.346Z,32.2
2022-09-02T12:19:46.350Z,32.82
2022-09-02T12:20:46.333Z,32.69
2022-09-02T12:21:46.323Z,31.88
2022-09-02T12:22:46.332Z,32.59
2022-09-02T12:23:46.304Z,33.1
2022-09-02T12:24:46.289Z,33.39
2022-09-02T12:25:46.326Z,33.97
2022-09-02T12:26:46.267Z,33.75
2022-09-02T12:27:46.262Z,33.74
2022-09-02T12:28:46.259Z,34.05
2022-09-02T12:29:46.242Z,34.05
2022-09-02T12:30:46.233Z,33.74
2022-09-02T12:31:46.215Z,33.46
2022-09-02T12:32:47.217Z,33.97
2022-09-02T12:33:46.204Z,34.59
2022-09-02T12:34:46.202Z,34.89
2022-09-02T12:35:46.354Z,33.92
2022-09-02T12:36:46.178Z,34.12
2022-09-02T12:37:47.134Z,34.31
2022-09-02T12:38:46.144Z,34.31
2022-09-02T12:39:46.200Z,34.82
2022-09-02T12:40:46.142Z,34.81
2022-09-02T12:41:46.117Z,34.99
2022-09-02T12:42:46.111Z,35.38
2022-09-02T12:43:46.105Z,34.86
2022-09-02T12:44:46.091Z,32.48
2022-09-02T12:45:46.092Z,30.83
2022-09-02T12:46:46.065Z,29.17
2022-09-02T12:47:46.100Z,28.36
2022-09-02T12:48:46.062Z,27.64
2022-09-02T12:49:46.063Z,27.23
2022-09-02T12:50:46.026Z,26.82
2022-09-02T12:51:46.014Z,26.32
2022-09-02T12:52:46.055Z,26.4
2022-09-02T12:53:46.005Z,26.75
2022-09-02T12:54:46.016Z,27.15
2022-09-02T12:55:46.166Z,27.25
2022-09-02T12:56:46.009Z,27.23
2022-09-02T12:57:45.957Z,26.4
2022-09-02T12:58:45.951Z,25.49